sensor_id;sensor_type;location;lat;lon;timestamp;temperature;humidity
11239;DHT22;5677;48.488;13.436;2023-05-16T00:01:08;15.20;49.90
11239;DHT22;5677;48.488;13.436;2023-05-16T00:03:34;15.20;49.90
11239;DHT22;5677;48.488;13.436;2023-05-16T00:06:02;15.20;49.90
11239;DHT22;5677;48.488;13.436;2023-05-16T00:08:29;15.20;49.80
11239;DHT22;5677;48.488;13.436;2023-05-16T00:10:58;15.20;49.80
11239;DHT22;5677;48.488;13.436;2023-05-16T00:13:24;15.20;49.90
11239;DHT22;5677;48.488;13.436;2023-05-16T00:15:51;15.20;49.90
11239;DHT22;5677;48.488;13.436;2023-05-16T00:18:19;15.20;49.90
11239;DHT22;5677;48.488;13.436;2023-05-16T00:20:46;15.20;50.50
11239;DHT22;5677;48.488;13.436;2023-05-16T00:23:13;15.20;49.90
11239;DHT22;5677;48.488;13.436;2023-05-16T00:25:40;15.20;49.90
11239;DHT22;5677;48.488;13.436;2023-05-16T00:28:08;15.20;49.90
11239;DHT22;5677;48.488;13.436;2023-05-16T00:30:35;15.20;49.90
11239;DHT22;5677;48.488;13.436;2023-05-16T00:33:01;15.20;49.90
11239;DHT22;5677;48.488;13.436;2023-05-16T00:35:28;15.20;49.90
11239;DHT22;5677;48.488;13.436;2023-05-16T00:37:55;15.20;49.90
11239;DHT22;5677;48.488;13.436;2023-05-16T00:40:22;15.20;49.90
11239;DHT22;5677;48.488;13.436;2023-05-16T00:42:48;15.20;49.90
11239;DHT22;5677;48.488;13.436;2023-05-16T00:45:17;15.20;49.90
11239;DHT22;5677;48.488;13.436;2023-05-16T00:47:43;15.20;49.90
11239;DHT22;5677;48.488;13.436;2023-05-16T00:50:10;15.20;49.90
11239;DHT22;5677;48.488;13.436;2023-05-16T00:52:37;15.20;49.90
11239;DHT22;5677;48.488;13.436;2023-05-16T00:55:05;15.10;49.90
11239;DHT22;5677;48.488;13.436;2023-05-16T00:57:32;15.20;49.90
11239;DHT22;5677;48.488;13.436;2023-05-16T00:59:59;15.10;49.90
11239;DHT22;5677;48.488;13.436;2023-05-16T01:02:27;15.20;49.90
11239;DHT22;5677;48.488;13.436;2023-05-16T01:04:55;15.10;49.90
11239;DHT22;5677;48.488;13.436;2023-05-16T01:07:22;15.10;49.90
11239;DHT22;5677;48.488;13.436;2023-05-16T01:09:49;15.10;49.90
11239;DHT22;5677;48.488;13.436;2023-05-16T01:12:23;15.10;49.90
11239;DHT22;5677;48.488;13.436;2023-05-16T01:15:04;15.10;50.00
11239;DHT22;5677;48.488;13.436;2023-05-16T01:17:42;15.10;50.00
11239;DHT22;5677;48.488;13.436;2023-05-16T01:20:21;15.10;49.90
11239;DHT22;5677;48.488;13.436;2023-05-16T01:23:04;15.10;50.00
11239;DHT22;5677;48.488;13.436;2023-05-16T01:25:43;15.10;50.00
11239;DHT22;5677;48.488;13.436;2023-05-16T01:28:15;15.10;50.00
11239;DHT22;5677;48.488;13.436;2023-05-16T01:30:43;15.10;50.00
11239;DHT22;5677;48.488;13.436;2023-05-16T01:33:09;15.10;50.00
11239;DHT22;5677;48.488;13.436;2023-05-16T01:35:41;15.10;50.00
11239;DHT22;5677;48.488;13.436;2023-05-16T01:38:12;15.10;50.00
11239;DHT22;5677;48.488;13.436;2023-05-16T01:40:47;15.10;50.00
11239;DHT22;5677;48.488;13.436;2023-05-16T01:43:24;15.10;50.00
11239;DHT22;5677;48.488;13.436;2023-05-16T01:46:01;15.10;50.00
11239;DHT22;5677;48.488;13.436;2023-05-16T01:48:32;15.10;50.00
11239;DHT22;5677;48.488;13.436;2023-05-16T01:51:01;15.10;50.00
11239;DHT22;5677;48.488;13.436;2023-05-16T01:53:36;15.10;50.00
11239;DHT22;5677;48.488;13.436;2023-05-16T01:56:08;15.10;50.00
11239;DHT22;5677;48.488;13.436;2023-05-16T01:58:37;15.10;50.00
11239;DHT22;5677;48.488;13.436;2023-05-16T02:01:04;15.10;50.00
11239;DHT22;5677;48.488;13.436;2023-05-16T02:03:31;15.10;50.00
11239;DHT22;5677;48.488;13.436;2023-05-16T02:05:59;15.10;50.00
11239;DHT22;5677;48.488;13.436;2023-05-16T02:08:26;15.10;50.00
11239;DHT22;5677;48.488;13.436;2023-05-16T02:10:53;15.10;50.00
11239;DHT22;5677;48.488;13.436;2023-05-16T02:13:20;15.10;50.00
11239;DHT22;5677;48.488;13.436;2023-05-16T02:15:48;15.10;50.00
11239;DHT22;5677;48.488;13.436;2023-05-16T02:18:14;15.10;50.00
11239;DHT22;5677;48.488;13.436;2023-05-16T02:20:43;15.10;50.00
11239;DHT22;5677;48.488;13.436;2023-05-16T02:23:10;15.10;50.00
11239;DHT22;5677;48.488;13.436;2023-05-16T02:25:36;15.10;50.00
11239;DHT22;5677;48.488;13.436;2023-05-16T02:28:03;15.00;49.90
11239;DHT22;5677;48.488;13.436;2023-05-16T02:30:31;15.10;50.00
11239;DHT22;5677;48.488;13.436;2023-05-16T02:32:59;15.10;50.10
11239;DHT22;5677;48.488;13.436;2023-05-16T02:35:26;15.00;50.00
11239;DHT22;5677;48.488;13.436;2023-05-16T02:37:53;15.00;49.90
11239;DHT22;5677;48.488;13.436;2023-05-16T02:40:20;15.00;50.00
11239;DHT22;5677;48.488;13.436;2023-05-16T02:42:46;15.00;50.00
11239;DHT22;5677;48.488;13.436;2023-05-16T02:45:13;15.00;50.00
11239;DHT22;5677;48.488;13.436;2023-05-16T02:47:40;15.10;50.00
11239;DHT22;5677;48.488;13.436;2023-05-16T02:50:09;15.10;50.00
11239;DHT22;5677;48.488;13.436;2023-05-16T02:52:37;15.10;50.00
11239;DHT22;5677;48.488;13.436;2023-05-16T02:55:04;15.00;50.00
11239;DHT22;5677;48.488;13.436;2023-05-16T02:57:32;15.00;50.00
11239;DHT22;5677;48.488;13.436;2023-05-16T02:59:58;15.10;50.10
11239;DHT22;5677;48.488;13.436;2023-05-16T03:02:25;15.00;50.00
11239;DHT22;5677;48.488;13.436;2023-05-16T03:04:52;15.00;50.00
11239;DHT22;5677;48.488;13.436;2023-05-16T03:07:20;15.00;50.70
11239;DHT22;5677;48.488;13.436;2023-05-16T03:09:46;15.00;50.00
11239;DHT22;5677;48.488;13.436;2023-05-16T03:12:13;15.00;50.00
11239;DHT22;5677;48.488;13.436;2023-05-16T03:14:40;15.00;50.00
11239;DHT22;5677;48.488;13.436;2023-05-16T03:17:06;15.00;50.00
11239;DHT22;5677;48.488;13.436;2023-05-16T03:19:33;15.00;50.00
11239;DHT22;5677;48.488;13.436;2023-05-16T03:22:00;15.00;50.00
11239;DHT22;5677;48.488;13.436;2023-05-16T03:24:28;15.00;50.00
11239;DHT22;5677;48.488;13.436;2023-05-16T03:26:55;15.00;50.00
11239;DHT22;5677;48.488;13.436;2023-05-16T03:29:21;15.00;50.00
11239;DHT22;5677;48.488;13.436;2023-05-16T03:31:48;15.00;50.00
11239;DHT22;5677;48.488;13.436;2023-05-16T03:34:15;15.00;50.00
11239;DHT22;5677;48.488;13.436;2023-05-16T03:36:41;15.00;50.00
11239;DHT22;5677;48.488;13.436;2023-05-16T03:39:08;15.00;50.00
11239;DHT22;5677;48.488;13.436;2023-05-16T03:41:37;15.00;50.00
11239;DHT22;5677;48.488;13.436;2023-05-16T03:44:04;15.00;50.00
11239;DHT22;5677;48.488;13.436;2023-05-16T03:46:30;15.00;50.00
11239;DHT22;5677;48.488;13.436;2023-05-16T03:48:58;15.00;50.00
11239;DHT22;5677;48.488;13.436;2023-05-16T03:51:24;15.00;50.00
11239;DHT22;5677;48.488;13.436;2023-05-16T03:53:51;15.00;50.00
11239;DHT22;5677;48.488;13.436;2023-05-16T03:56:18;15.00;50.00
11239;DHT22;5677;48.488;13.436;2023-05-16T03:58:47;15.00;50.00
11239;DHT22;5677;48.488;13.436;2023-05-16T04:01:14;15.00;50.00
11239;DHT22;5677;48.488;13.436;2023-05-16T04:03:41;15.00;50.00
11239;DHT22;5677;48.488;13.436;2023-05-16T04:06:07;15.00;50.00
11239;DHT22;5677;48.488;13.436;2023-05-16T04:08:34;15.00;50.00
11239;DHT22;5677;48.488;13.436;2023-05-16T04:11:00;15.00;50.00
11239;DHT22;5677;48.488;13.436;2023-05-16T04:13:27;15.00;50.00
11239;DHT22;5677;48.488;13.436;2023-05-16T04:15:55;15.00;50.00
11239;DHT22;5677;48.488;13.436;2023-05-16T04:18:22;15.00;50.00
11239;DHT22;5677;48.488;13.436;2023-05-16T04:20:49;15.00;50.00
11239;DHT22;5677;48.488;13.436;2023-05-16T04:23:15;15.00;50.00
11239;DHT22;5677;48.488;13.436;2023-05-16T04:25:42;15.00;50.00
11239;DHT22;5677;48.488;13.436;2023-05-16T04:28:09;15.00;50.00
11239;DHT22;5677;48.488;13.436;2023-05-16T04:30:36;15.00;50.00
11239;DHT22;5677;48.488;13.436;2023-05-16T04:33:04;15.00;50.00
11239;DHT22;5677;48.488;13.436;2023-05-16T04:35:31;15.00;50.00
11239;DHT22;5677;48.488;13.436;2023-05-16T04:37:58;15.00;50.00
11239;DHT22;5677;48.488;13.436;2023-05-16T04:40:25;15.00;49.90
11239;DHT22;5677;48.488;13.436;2023-05-16T04:42:52;15.00;49.90
11239;DHT22;5677;48.488;13.436;2023-05-16T04:45:19;15.00;49.90
11239;DHT22;5677;48.488;13.436;2023-05-16T04:47:46;15.00;49.90
11239;DHT22;5677;48.488;13.436;2023-05-16T04:50:15;15.00;49.90
11239;DHT22;5677;48.488;13.436;2023-05-16T04:52:42;15.00;49.90
11239;DHT22;5677;48.488;13.436;2023-05-16T04:55:10;15.00;49.80
11239;DHT22;5677;48.488;13.436;2023-05-16T04:57:36;15.00;49.80
11239;DHT22;5677;48.488;13.436;2023-05-16T05:00:05;15.00;49.80
11239;DHT22;5677;48.488;13.436;2023-05-16T05:02:34;15.00;49.80
11239;DHT22;5677;48.488;13.436;2023-05-16T05:05:01;15.00;49.80
11239;DHT22;5677;48.488;13.436;2023-05-16T05:07:29;15.00;49.80
11239;DHT22;5677;48.488;13.436;2023-05-16T05:09:56;15.00;49.80
11239;DHT22;5677;48.488;13.436;2023-05-16T05:12:23;15.00;49.80
11239;DHT22;5677;48.488;13.436;2023-05-16T05:14:51;15.00;49.80
11239;DHT22;5677;48.488;13.436;2023-05-16T05:17:18;15.00;49.80
11239;DHT22;5677;48.488;13.436;2023-05-16T05:19:45;15.00;49.80
11239;DHT22;5677;48.488;13.436;2023-05-16T05:22:12;15.10;49.90
11239;DHT22;5677;48.488;13.436;2023-05-16T05:24:40;15.00;49.70
11239;DHT22;5677;48.488;13.436;2023-05-16T05:27:07;15.00;49.80
11239;DHT22;5677;48.488;13.436;2023-05-16T05:29:34;15.00;49.70
11239;DHT22;5677;48.488;13.436;2023-05-16T05:32:01;15.00;49.70
11239;DHT22;5677;48.488;13.436;2023-05-16T05:34:27;15.00;49.70
11239;DHT22;5677;48.488;13.436;2023-05-16T05:36:54;15.10;49.80
11239;DHT22;5677;48.488;13.436;2023-05-16T05:39:21;15.10;49.70
11239;DHT22;5677;48.488;13.436;2023-05-16T05:41:50;15.10;49.70
11239;DHT22;5677;48.488;13.436;2023-05-16T05:44:16;15.10;49.70
11239;DHT22;5677;48.488;13.436;2023-05-16T05:46:43;15.10;49.70
11239;DHT22;5677;48.488;13.436;2023-05-16T05:49:11;15.10;49.60
11239;DHT22;5677;48.488;13.436;2023-05-16T05:51:38;15.10;49.60
11239;DHT22;5677;48.488;13.436;2023-05-16T05:54:05;15.10;49.60
11239;DHT22;5677;48.488;13.436;2023-05-16T05:56:32;15.10;49.60
11239;DHT22;5677;48.488;13.436;2023-05-16T05:59:00;15.10;49.60
11239;DHT22;5677;48.488;13.436;2023-05-16T06:01:26;15.10;49.60
11239;DHT22;5677;48.488;13.436;2023-05-16T06:03:53;15.10;49.60
11239;DHT22;5677;48.488;13.436;2023-05-16T06:06:20;15.10;49.60
11239;DHT22;5677;48.488;13.436;2023-05-16T06:08:47;15.20;49.50
11239;DHT22;5677;48.488;13.436;2023-05-16T06:11:13;15.20;49.40
11239;DHT22;5677;48.488;13.436;2023-05-16T06:13:40;15.20;49.40
11239;DHT22;5677;48.488;13.436;2023-05-16T06:16:08;15.20;49.40
11239;DHT22;5677;48.488;13.436;2023-05-16T06:18:35;15.20;49.40
11239;DHT22;5677;48.488;13.436;2023-05-16T06:21:02;15.20;49.40
11239;DHT22;5677;48.488;13.436;2023-05-16T06:23:30;15.20;49.30
11239;DHT22;5677;48.488;13.436;2023-05-16T06:25:56;15.20;50.00
11239;DHT22;5677;48.488;13.436;2023-05-16T06:28:23;15.20;49.30
11239;DHT22;5677;48.488;13.436;2023-05-16T06:30:50;15.20;49.30
11239;DHT22;5677;48.488;13.436;2023-05-16T06:33:18;15.20;49.30
11239;DHT22;5677;48.488;13.436;2023-05-16T06:35:45;15.20;49.30
11239;DHT22;5677;48.488;13.436;2023-05-16T06:38:13;15.20;49.30
11239;DHT22;5677;48.488;13.436;2023-05-16T06:40:39;15.20;49.30
11239;DHT22;5677;48.488;13.436;2023-05-16T06:43:06;15.20;49.30
11239;DHT22;5677;48.488;13.436;2023-05-16T06:45:33;15.20;49.30
11239;DHT22;5677;48.488;13.436;2023-05-16T06:48:00;15.20;49.30
11239;DHT22;5677;48.488;13.436;2023-05-16T06:50:28;15.20;49.30
11239;DHT22;5677;48.488;13.436;2023-05-16T06:52:54;15.20;49.30
11239;DHT22;5677;48.488;13.436;2023-05-16T06:55:21;15.20;49.20
11239;DHT22;5677;48.488;13.436;2023-05-16T06:57:48;15.20;49.20
11239;DHT22;5677;48.488;13.436;2023-05-16T07:00:15;15.20;49.20
11239;DHT22;5677;48.488;13.436;2023-05-16T07:02:42;15.20;49.20
11239;DHT22;5677;48.488;13.436;2023-05-16T07:05:09;15.20;49.20
11239;DHT22;5677;48.488;13.436;2023-05-16T07:07:37;15.20;49.20
11239;DHT22;5677;48.488;13.436;2023-05-16T07:10:04;15.30;49.30
11239;DHT22;5677;48.488;13.436;2023-05-16T07:12:31;15.20;49.20
11239;DHT22;5677;48.488;13.436;2023-05-16T07:14:58;15.20;49.10
11239;DHT22;5677;48.488;13.436;2023-05-16T07:17:24;15.20;49.10
11239;DHT22;5677;48.488;13.436;2023-05-16T07:19:51;15.30;49.20
11239;DHT22;5677;48.488;13.436;2023-05-16T07:22:18;15.30;49.20
11239;DHT22;5677;48.488;13.436;2023-05-16T07:24:46;15.30;49.20
11239;DHT22;5677;48.488;13.436;2023-05-16T07:27:13;15.30;49.20
11239;DHT22;5677;48.488;13.436;2023-05-16T07:29:40;15.30;49.10
11239;DHT22;5677;48.488;13.436;2023-05-16T07:32:07;15.30;49.10
11239;DHT22;5677;48.488;13.436;2023-05-16T07:34:33;15.30;49.10
11239;DHT22;5677;48.488;13.436;2023-05-16T07:37:00;15.30;49.00
11239;DHT22;5677;48.488;13.436;2023-05-16T07:39:27;15.30;49.00
11239;DHT22;5677;48.488;13.436;2023-05-16T07:41:55;15.30;49.00
11239;DHT22;5677;48.488;13.436;2023-05-16T07:44:22;15.30;49.00
11239;DHT22;5677;48.488;13.436;2023-05-16T07:46:49;15.40;48.90
11239;DHT22;5677;48.488;13.436;2023-05-16T07:49:16;15.40;48.90
11239;DHT22;5677;48.488;13.436;2023-05-16T07:51:42;15.40;48.90
11239;DHT22;5677;48.488;13.436;2023-05-16T07:54:09;15.40;48.80
11239;DHT22;5677;48.488;13.436;2023-05-16T07:56:36;15.40;48.80
11239;DHT22;5677;48.488;13.436;2023-05-16T07:59:04;15.40;48.80
11239;DHT22;5677;48.488;13.436;2023-05-16T08:01:31;15.40;48.80
11239;DHT22;5677;48.488;13.436;2023-05-16T08:03:57;15.40;48.80
11239;DHT22;5677;48.488;13.436;2023-05-16T08:06:24;15.40;48.80
11239;DHT22;5677;48.488;13.436;2023-05-16T08:08:51;15.40;48.80
11239;DHT22;5677;48.488;13.436;2023-05-16T08:11:18;15.40;48.80
11239;DHT22;5677;48.488;13.436;2023-05-16T08:13:46;15.40;48.80
11239;DHT22;5677;48.488;13.436;2023-05-16T08:16:14;15.40;48.80
11239;DHT22;5677;48.488;13.436;2023-05-16T08:18:41;15.40;48.80
11239;DHT22;5677;48.488;13.436;2023-05-16T08:21:08;15.40;48.80
11239;DHT22;5677;48.488;13.436;2023-05-16T08:23:35;15.40;48.80
11239;DHT22;5677;48.488;13.436;2023-05-16T08:26:02;15.40;48.80
11239;DHT22;5677;48.488;13.436;2023-05-16T08:28:28;15.40;48.70
11239;DHT22;5677;48.488;13.436;2023-05-16T08:30:55;15.40;48.80
11239;DHT22;5677;48.488;13.436;2023-05-16T08:33:23;15.40;48.70
11239;DHT22;5677;48.488;13.436;2023-05-16T08:35:50;15.40;48.70
11239;DHT22;5677;48.488;13.436;2023-05-16T08:38:18;15.40;48.70
11239;DHT22;5677;48.488;13.436;2023-05-16T08:40:44;15.40;48.70
11239;DHT22;5677;48.488;13.436;2023-05-16T08:43:11;15.40;48.70
11239;DHT22;5677;48.488;13.436;2023-05-16T08:45:39;15.40;48.60
11239;DHT22;5677;48.488;13.436;2023-05-16T08:48:06;15.40;48.70
11239;DHT22;5677;48.488;13.436;2023-05-16T08:50:34;15.40;48.70
11239;DHT22;5677;48.488;13.436;2023-05-16T08:53:04;15.40;48.70
11239;DHT22;5677;48.488;13.436;2023-05-16T08:55:32;15.40;48.70
11239;DHT22;5677;48.488;13.436;2023-05-16T08:57:59;15.40;48.70
11239;DHT22;5677;48.488;13.436;2023-05-16T09:00:26;15.40;48.70
11239;DHT22;5677;48.488;13.436;2023-05-16T09:02:53;15.40;48.70
11239;DHT22;5677;48.488;13.436;2023-05-16T09:05:21;15.40;48.70
11239;DHT22;5677;48.488;13.436;2023-05-16T09:07:50;15.40;48.70
11239;DHT22;5677;48.488;13.436;2023-05-16T09:10:16;15.40;48.80
11239;DHT22;5677;48.488;13.436;2023-05-16T09:12:43;15.40;48.80
11239;DHT22;5677;48.488;13.436;2023-05-16T09:15:10;15.50;48.90
11239;DHT22;5677;48.488;13.436;2023-05-16T09:17:38;15.40;48.80
11239;DHT22;5677;48.488;13.436;2023-05-16T09:20:09;15.50;48.90
11239;DHT22;5677;48.488;13.436;2023-05-16T09:22:36;15.40;48.80
11239;DHT22;5677;48.488;13.436;2023-05-16T09:25:05;15.50;48.90
11239;DHT22;5677;48.488;13.436;2023-05-16T09:27:32;15.40;48.80
11239;DHT22;5677;48.488;13.436;2023-05-16T09:29:59;15.50;49.50
11239;DHT22;5677;48.488;13.436;2023-05-16T09:32:26;15.50;48.80
11239;DHT22;5677;48.488;13.436;2023-05-16T09:34:53;15.50;48.80
11239;DHT22;5677;48.488;13.436;2023-05-16T09:37:23;15.50;48.90
11239;DHT22;5677;48.488;13.436;2023-05-16T09:39:51;15.40;48.80
11239;DHT22;5677;48.488;13.436;2023-05-16T09:42:20;15.50;48.90
11239;DHT22;5677;48.488;13.436;2023-05-16T09:44:48;15.50;48.80
11239;DHT22;5677;48.488;13.436;2023-05-16T09:47:16;15.50;48.90
11239;DHT22;5677;48.488;13.436;2023-05-16T09:49:44;15.50;48.80
11239;DHT22;5677;48.488;13.436;2023-05-16T09:52:12;15.50;48.80
11239;DHT22;5677;48.488;13.436;2023-05-16T09:54:39;15.50;48.90
11239;DHT22;5677;48.488;13.436;2023-05-16T09:57:06;15.50;48.90
11239;DHT22;5677;48.488;13.436;2023-05-16T09:59:36;15.50;48.90
11239;DHT22;5677;48.488;13.436;2023-05-16T10:02:04;15.50;49.00
11239;DHT22;5677;48.488;13.436;2023-05-16T10:04:32;15.50;49.00
11239;DHT22;5677;48.488;13.436;2023-05-16T10:07:01;15.50;49.00
11239;DHT22;5677;48.488;13.436;2023-05-16T10:09:30;15.50;49.00
11239;DHT22;5677;48.488;13.436;2023-05-16T10:11:57;15.60;49.00
11239;DHT22;5677;48.488;13.436;2023-05-16T10:14:27;15.60;49.00
11239;DHT22;5677;48.488;13.436;2023-05-16T10:16:56;15.60;49.00
11239;DHT22;5677;48.488;13.436;2023-05-16T10:19:24;15.60;49.00
11239;DHT22;5677;48.488;13.436;2023-05-16T10:21:53;15.60;49.00
11239;DHT22;5677;48.488;13.436;2023-05-16T10:24:28;15.50;49.00
11239;DHT22;5677;48.488;13.436;2023-05-16T10:26:55;15.50;49.00
11239;DHT22;5677;48.488;13.436;2023-05-16T10:29:23;15.50;49.10
11239;DHT22;5677;48.488;13.436;2023-05-16T10:31:50;15.50;49.00
11239;DHT22;5677;48.488;13.436;2023-05-16T10:34:19;15.50;49.00
11239;DHT22;5677;48.488;13.436;2023-05-16T10:36:46;15.50;49.00
11239;DHT22;5677;48.488;13.436;2023-05-16T10:39:13;15.50;49.00
11239;DHT22;5677;48.488;13.436;2023-05-16T10:41:41;15.50;49.00
11239;DHT22;5677;48.488;13.436;2023-05-16T10:44:12;15.50;49.00
11239;DHT22;5677;48.488;13.436;2023-05-16T10:46:40;15.50;49.00
11239;DHT22;5677;48.488;13.436;2023-05-16T10:49:20;15.50;49.00
11239;DHT22;5677;48.488;13.436;2023-05-16T10:52:02;15.50;49.00
11239;DHT22;5677;48.488;13.436;2023-05-16T10:54:36;15.50;49.00
11239;DHT22;5677;48.488;13.436;2023-05-16T10:57:05;15.50;49.00
11239;DHT22;5677;48.488;13.436;2023-05-16T10:59:40;15.50;49.00
11239;DHT22;5677;48.488;13.436;2023-05-16T11:02:24;15.50;49.00
11239;DHT22;5677;48.488;13.436;2023-05-16T11:04:54;15.50;49.10
11239;DHT22;5677;48.488;13.436;2023-05-16T11:07:22;15.50;49.10
11239;DHT22;5677;48.488;13.436;2023-05-16T11:10:02;15.50;49.10
11239;DHT22;5677;48.488;13.436;2023-05-16T11:12:37;15.50;49.10
11239;DHT22;5677;48.488;13.436;2023-05-16T11:15:17;15.50;49.00
11239;DHT22;5677;48.488;13.436;2023-05-16T11:17:44;15.50;49.10
11239;DHT22;5677;48.488;13.436;2023-05-16T11:20:25;15.50;49.10
11239;DHT22;5677;48.488;13.436;2023-05-16T11:23:21;15.50;49.00
11239;DHT22;5677;48.488;13.436;2023-05-16T11:25:50;15.50;49.00
11239;DHT22;5677;48.488;13.436;2023-05-16T11:28:18;15.50;49.10
11239;DHT22;5677;48.488;13.436;2023-05-16T11:30:46;15.50;49.10
11239;DHT22;5677;48.488;13.436;2023-05-16T11:33:13;15.50;49.10
11239;DHT22;5677;48.488;13.436;2023-05-16T11:35:40;15.40;49.00
11239;DHT22;5677;48.488;13.436;2023-05-16T11:38:11;15.40;48.90
11239;DHT22;5677;48.488;13.436;2023-05-16T11:40:42;15.40;49.00
11239;DHT22;5677;48.488;13.436;2023-05-16T11:43:10;15.40;49.00
11239;DHT22;5677;48.488;13.436;2023-05-16T11:45:37;15.40;49.00
11239;DHT22;5677;48.488;13.436;2023-05-16T11:48:04;15.40;49.00
11239;DHT22;5677;48.488;13.436;2023-05-16T11:50:33;15.40;49.00
11239;DHT22;5677;48.488;13.436;2023-05-16T11:53:00;15.40;49.00
11239;DHT22;5677;48.488;13.436;2023-05-16T11:55:29;15.40;49.00
11239;DHT22;5677;48.488;13.436;2023-05-16T11:57:57;15.40;49.00
11239;DHT22;5677;48.488;13.436;2023-05-16T12:00:25;15.40;48.90
11239;DHT22;5677;48.488;13.436;2023-05-16T12:02:53;15.40;48.90
11239;DHT22;5677;48.488;13.436;2023-05-16T12:05:21;15.50;49.10
11239;DHT22;5677;48.488;13.436;2023-05-16T12:07:50;15.40;49.00
11239;DHT22;5677;48.488;13.436;2023-05-16T12:10:18;15.40;49.00
11239;DHT22;5677;48.488;13.436;2023-05-16T12:12:48;15.50;49.10
11239;DHT22;5677;48.488;13.436;2023-05-16T12:15:17;15.40;49.00
11239;DHT22;5677;48.488;13.436;2023-05-16T12:17:44;15.40;49.00
11239;DHT22;5677;48.488;13.436;2023-05-16T12:20:12;15.40;49.10
11239;DHT22;5677;48.488;13.436;2023-05-16T12:22:40;15.40;49.00
11239;DHT22;5677;48.488;13.436;2023-05-16T12:25:27;15.40;49.00
11239;DHT22;5677;48.488;13.436;2023-05-16T12:27:55;15.40;49.00
11239;DHT22;5677;48.488;13.436;2023-05-16T12:30:24;15.40;49.00
11239;DHT22;5677;48.488;13.436;2023-05-16T12:32:54;15.40;49.00
11239;DHT22;5677;48.488;13.436;2023-05-16T12:35:21;15.40;49.00
11239;DHT22;5677;48.488;13.436;2023-05-16T12:37:48;15.40;49.00
11239;DHT22;5677;48.488;13.436;2023-05-16T12:40:15;15.40;49.00
11239;DHT22;5677;48.488;13.436;2023-05-16T12:42:42;15.40;49.00
11239;DHT22;5677;48.488;13.436;2023-05-16T12:45:14;15.40;49.00
11239;DHT22;5677;48.488;13.436;2023-05-16T12:47:43;15.40;48.90
11239;DHT22;5677;48.488;13.436;2023-05-16T12:50:10;15.50;49.10
11239;DHT22;5677;48.488;13.436;2023-05-16T12:52:46;15.40;49.00
11239;DHT22;5677;48.488;13.436;2023-05-16T12:55:14;15.40;49.00
11239;DHT22;5677;48.488;13.436;2023-05-16T12:57:42;15.40;49.00
11239;DHT22;5677;48.488;13.436;2023-05-16T13:00:10;15.40;49.00
11239;DHT22;5677;48.488;13.436;2023-05-16T13:02:37;15.40;49.00
11239;DHT22;5677;48.488;13.436;2023-05-16T13:05:06;15.40;49.00
11239;DHT22;5677;48.488;13.436;2023-05-16T13:07:35;15.40;49.00
11239;DHT22;5677;48.488;13.436;2023-05-16T13:10:02;15.40;49.00
11239;DHT22;5677;48.488;13.436;2023-05-16T13:12:29;15.40;49.00
11239;DHT22;5677;48.488;13.436;2023-05-16T13:14:56;15.40;49.00
11239;DHT22;5677;48.488;13.436;2023-05-16T13:17:22;15.50;49.10
11239;DHT22;5677;48.488;13.436;2023-05-16T13:19:49;15.40;49.20
11239;DHT22;5677;48.488;13.436;2023-05-16T13:22:17;15.50;49.10
11239;DHT22;5677;48.488;13.436;2023-05-16T13:24:44;15.40;49.00
11239;DHT22;5677;48.488;13.436;2023-05-16T13:27:15;15.50;49.10
11239;DHT22;5677;48.488;13.436;2023-05-16T13:29:41;15.50;49.10
11239;DHT22;5677;48.488;13.436;2023-05-16T13:32:08;15.50;49.10
11239;DHT22;5677;48.488;13.436;2023-05-16T13:34:35;15.50;49.00
11239;DHT22;5677;48.488;13.436;2023-05-16T13:37:02;15.50;49.00
11239;DHT22;5677;48.488;13.436;2023-05-16T13:39:30;15.50;49.00
11239;DHT22;5677;48.488;13.436;2023-05-16T13:41:56;15.50;49.10
11239;DHT22;5677;48.488;13.436;2023-05-16T13:44:24;15.50;49.10
11239;DHT22;5677;48.488;13.436;2023-05-16T13:46:51;15.50;49.10
11239;DHT22;5677;48.488;13.436;2023-05-16T13:49:18;15.50;49.00
11239;DHT22;5677;48.488;13.436;2023-05-16T13:51:45;15.50;49.10
11239;DHT22;5677;48.488;13.436;2023-05-16T13:54:12;15.50;49.10
11239;DHT22;5677;48.488;13.436;2023-05-16T13:56:40;15.50;49.10
11239;DHT22;5677;48.488;13.436;2023-05-16T13:59:07;15.50;49.10
11239;DHT22;5677;48.488;13.436;2023-05-16T14:01:33;15.50;49.10
11239;DHT22;5677;48.488;13.436;2023-05-16T14:04:00;15.50;49.10
11239;DHT22;5677;48.488;13.436;2023-05-16T14:06:27;15.50;49.10
11239;DHT22;5677;48.488;13.436;2023-05-16T14:08:54;15.50;49.10
11239;DHT22;5677;48.488;13.436;2023-05-16T14:11:21;15.50;49.20
11239;DHT22;5677;48.488;13.436;2023-05-16T14:13:52;15.50;49.20
11239;DHT22;5677;48.488;13.436;2023-05-16T14:16:20;15.50;49.80
11239;DHT22;5677;48.488;13.436;2023-05-16T14:18:46;15.50;49.10
11239;DHT22;5677;48.488;13.436;2023-05-16T14:21:13;15.40;49.00
11239;DHT22;5677;48.488;13.436;2023-05-16T14:23:40;15.50;49.20
11239;DHT22;5677;48.488;13.436;2023-05-16T14:26:07;15.50;49.20
11239;DHT22;5677;48.488;13.436;2023-05-16T14:28:33;15.40;49.00
11239;DHT22;5677;48.488;13.436;2023-05-16T14:31:02;15.40;49.10
11239;DHT22;5677;48.488;13.436;2023-05-16T14:33:28;15.50;49.20
11239;DHT22;5677;48.488;13.436;2023-05-16T14:35:55;15.40;49.00
11239;DHT22;5677;48.488;13.436;2023-05-16T14:38:22;15.40;49.00
11239;DHT22;5677;48.488;13.436;2023-05-16T14:40:48;15.40;49.10
11239;DHT22;5677;48.488;13.436;2023-05-16T14:43:16;15.40;49.10
11239;DHT22;5677;48.488;13.436;2023-05-16T14:45:42;15.40;49.10
11239;DHT22;5677;48.488;13.436;2023-05-16T14:48:10;15.40;49.80
11239;DHT22;5677;48.488;13.436;2023-05-16T14:50:37;15.40;49.10
11239;DHT22;5677;48.488;13.436;2023-05-16T14:53:04;15.40;49.10
11239;DHT22;5677;48.488;13.436;2023-05-16T14:55:30;15.40;49.10
11239;DHT22;5677;48.488;13.436;2023-05-16T14:57:57;15.40;49.80
11239;DHT22;5677;48.488;13.436;2023-05-16T15:00:24;15.40;49.20
11239;DHT22;5677;48.488;13.436;2023-05-16T15:02:51;15.40;49.20
11239;DHT22;5677;48.488;13.436;2023-05-16T15:05:19;15.40;49.20
11239;DHT22;5677;48.488;13.436;2023-05-16T15:07:46;15.40;49.20
11239;DHT22;5677;48.488;13.436;2023-05-16T15:10:13;15.40;49.20
11239;DHT22;5677;48.488;13.436;2023-05-16T15:12:39;15.40;49.30
11239;DHT22;5677;48.488;13.436;2023-05-16T15:15:08;15.40;49.30
11239;DHT22;5677;48.488;13.436;2023-05-16T15:17:36;15.40;49.30
11239;DHT22;5677;48.488;13.436;2023-05-16T15:20:05;15.40;49.30
11239;DHT22;5677;48.488;13.436;2023-05-16T15:22:33;15.40;49.30
11239;DHT22;5677;48.488;13.436;2023-05-16T15:25:00;15.40;49.30
11239;DHT22;5677;48.488;13.436;2023-05-16T15:27:30;15.40;49.30
11239;DHT22;5677;48.488;13.436;2023-05-16T15:29:57;15.40;49.30
11239;DHT22;5677;48.488;13.436;2023-05-16T15:32:23;15.40;49.40
11239;DHT22;5677;48.488;13.436;2023-05-16T15:34:50;15.40;49.40